createdAt,value
2018-06-01T00:00:53.003Z,21.06
2018-06-01T00:01:53.030Z,21.00
2018-06-01T00:02:53.053Z,21.14
2018-06-01T00:03:53.075Z,21.37
2018-06-01T00:04:53.142Z,21.14
2018-06-01T00:05:53.124Z,21.27
2018-06-01T00:06:53.155Z,21.40
2018-06-01T00:07:53.168Z,21.57
2018-06-01T00:08:53.181Z,21.80
2018-06-01T00:09:53.210Z,21.82
2018-06-01T00:10:53.243Z,21.48
2018-06-01T00:11:53.260Z,21.51
2018-06-01T00:12:53.271Z,21.50
2018-06-01T00:13:53.294Z,21.55
2018-06-01T00:14:53.323Z,21.51
2018-06-01T00:15:53.346Z,21.51
2018-06-01T00:16:53.364Z,21.24
2018-06-01T00:17:53.391Z,21.42
2018-06-01T00:18:53.408Z,21.54
2018-06-01T00:19:53.424Z,21.45
2018-06-01T00:20:53.450Z,21.51
2018-06-01T00:21:53.481Z,21.60
2018-06-01T00:22:53.513Z,21.40
2018-06-01T00:23:53.519Z,21.50
2018-06-01T00:24:53.537Z,21.30
2018-06-01T00:25:53.565Z,21.25
2018-06-01T00:26:53.597Z,21.21
2018-06-01T00:27:53.608Z,21.18
2018-06-01T00:28:53.636Z,21.12
2018-06-01T00:29:53.670Z,21.22
2018-06-01T00:30:53.684Z,21.17
2018-06-01T00:31:53.700Z,20.95
2018-06-01T00:32:53.726Z,20.72
2018-06-01T00:33:53.740Z,21.02
2018-06-01T00:34:53.765Z,20.96
2018-06-01T00:35:53.790Z,20.82
2018-06-01T00:36:53.808Z,20.70
2018-06-01T00:37:53.825Z,20.69
2018-06-01T00:38:53.854Z,20.96
2018-06-01T00:39:53.868Z,21.02
2018-06-01T00:40:53.902Z,21.20
2018-06-01T00:41:53.916Z,21.03
2018-06-01T00:42:53.935Z,21.02
2018-06-01T00:43:53.955Z,21.14
2018-06-01T00:44:54.007Z,21.11
2018-06-01T00:45:54.012Z,21.12
2018-06-01T00:46:54.031Z,20.97
2018-06-01T00:47:54.047Z,20.70
2018-06-01T00:48:54.068Z,20.63
2018-06-01T00:49:54.121Z,20.31
2018-06-01T00:50:54.136Z,20.10
2018-06-01T00:51:54.142Z,20.11
2018-06-01T00:52:54.158Z,19.99
2018-06-01T00:53:54.182Z,20.13
2018-06-01T00:54:54.203Z,20.03
2018-06-01T00:55:54.228Z,19.91
2018-06-01T00:56:54.259Z,19.84
2018-06-01T00:57:54.267Z,19.82
2018-06-01T00:58:54.292Z,19.81
2018-06-01T00:59:54.319Z,19.79
2018-06-01T01:00:54.335Z,19.96
2018-06-01T01:01:54.360Z,19.96
2018-06-01T01:02:54.401Z,19.91
2018-06-01T01:03:54.419Z,20.06
2018-06-01T01:04:54.424Z,20.24
2018-06-01T01:05:54.462Z,20.34
2018-06-01T01:06:54.470Z,20.24
2018-06-01T01:07:54.491Z,19.99
2018-06-01T01:08:54.509Z,19.86
2018-06-01T01:09:54.531Z,19.88
2018-06-01T01:10:54.566Z,19.76
2018-06-01T01:11:54.575Z,19.88
2018-06-01T01:12:54.600Z,19.86
2018-06-01T01:13:54.620Z,20.07
2018-06-01T01:14:54.640Z,20.29
2018-06-01T01:15:54.681Z,20.36
2018-06-01T01:16:54.705Z,20.39
2018-06-01T01:17:54.702Z,20.41
2018-06-01T01:18:54.734Z,20.56
2018-06-01T01:19:54.751Z,20.31
2018-06-01T01:20:54.772Z,20.34
2018-06-01T01:21:54.817Z,20.48
2018-06-01T01:22:54.816Z,20.69
2018-06-01T01:23:54.844Z,20.67
2018-06-01T01:24:54.860Z,20.85
2018-06-01T01:25:54.880Z,20.85
2018-06-01T01:26:54.901Z,20.47
2018-06-01T01:27:54.924Z,20.55
2018-06-01T01:28:54.959Z,20.65
2018-06-01T01:29:54.970Z,20.63
2018-06-01T01:30:54.988Z,20.69
2018-06-01T01:31:55.028Z,20.26
2018-06-01T01:32:55.032Z,20.13
2018-06-01T01:33:55.051Z,20.02
2018-06-01T01:34:55.084Z,20.07
2018-06-01T01:35:55.097Z,19.91
2018-06-01T01:36:55.146Z,19.95
2018-06-01T01:37:55.140Z,20.03
2018-06-01T01:38:55.161Z,19.88
2018-06-01T01:39:55.197Z,19.91
2018-06-01T01:40:55.204Z,19.64
2018-06-01T01:41:55.237Z,19.51
2018-06-01T01:42:55.252Z,19.44
2018-06-01T01:43:55.270Z,19.66
2018-06-01T01:44:55.287Z,19.99
2018-06-01T01:45:55.325Z,20.34
2018-06-01T01:46:55.348Z,20.59
2018-06-01T01:47:55.359Z,20.55
2018-06-01T01:48:55.385Z,20.66
2018-06-01T01:49:55.422Z,20.56
2018-06-01T01:50:55.424Z,20.25
2018-06-01T01:51:55.456Z,20.39
2018-06-01T01:52:55.471Z,20.59
2018-06-01T01:53:55.498Z,20.69
2018-06-01T01:54:55.537Z,20.65
2018-06-01T01:55:55.537Z,20.66
2018-06-01T01:56:55.559Z,20.84
2018-06-01T01:57:55.582Z,20.81
2018-06-01T01:58:55.610Z,20.95
2018-06-01T01:59:55.617Z,21.05
2018-06-01T02:00:55.641Z,20.85
2018-06-01T02:01:55.688Z,20.77
2018-06-01T02:02:55.692Z,20.52
2018-06-01T02:03:55.715Z,20.36
2018-06-01T02:04:55.740Z,20.21
2018-06-01T02:05:55.769Z,19.94
2018-06-01T02:06:55.779Z,19.88
2018-06-01T02:07:55.815Z,19.88
2018-06-01T02:08:55.829Z,20.06
2018-06-01T02:09:55.874Z,20.00
2018-06-01T02:10:55.864Z,19.99
2018-06-01T02:11:55.878Z,19.95
2018-06-01T02:12:55.912Z,19.88
2018-06-01T02:13:55.943Z,20.03
2018-06-01T02:14:55.947Z,20.00
2018-06-01T02:15:55.969Z,19.96
2018-06-01T02:16:56.002Z,19.99
2018-06-01T02:17:56.017Z,20.11
2018-06-01T02:18:56.046Z,20.22
2018-06-01T02:19:56.057Z,20.11
2018-06-01T02:20:56.076Z,20.11
2018-06-01T02:21:56.136Z,20.21
2018-06-01T02:22:56.121Z,20.29
2018-06-01T02:23:56.141Z,20.25
2018-06-01T02:24:56.183Z,20.28
2018-06-01T02:25:56.190Z,20.37
2018-06-01T02:26:56.211Z,20.70
2018-06-01T02:27:56.229Z,20.62
2018-06-01T02:28:56.252Z,20.55
2018-06-01T02:29:56.272Z,20.72
2018-06-01T02:30:56.328Z,20.95
2018-06-01T02:31:56.335Z,20.77
2018-06-01T02:32:56.342Z,20.93
2018-06-01T02:33:56.360Z,20.95
2018-06-01T02:34:56.385Z,21.02
2018-06-01T02:35:56.411Z,21.15
2018-06-01T02:36:56.431Z,21.25
2018-06-01T02:37:56.449Z,21.39
2018-06-01T02:38:56.473Z,21.45
2018-06-01T02:39:56.491Z,21.35
2018-06-01T02:40:56.509Z,21.11
2018-06-01T02:41:56.537Z,21.18
2018-06-01T02:42:56.566Z,21.36
2018-06-01T02:43:56.618Z,21.50
2018-06-01T02:44:56.604Z,21.54
2018-06-01T02:45:56.634Z,21.51
2018-06-01T02:46:56.664Z,21.42
2018-06-01T02:47:56.666Z,21.51
2018-06-01T02:48:56.697Z,21.54
2018-06-01T02:49:56.723Z,21.62
2018-06-01T02:50:56.734Z,21.51
2018-06-01T02:51:56.756Z,21.35
2018-06-01T02:52:56.777Z,21.15
2018-06-01T02:53:56.831Z,21.27
2018-06-01T02:54:56.825Z,21.39
2018-06-01T02:55:56.845Z,21.12
2018-06-01T02:56:56.880Z,20.99
2018-06-01T02:57:56.883Z,20.69
2018-06-01T02:58:56.925Z,20.51
2018-06-01T02:59:56.948Z,20.62
2018-06-01T03:00:56.958Z,20.65
2018-06-01T03:01:56.977Z,20.48
2018-06-01T03:02:56.997Z,20.34
2018-06-01T03:03:57.019Z,20.28
2018-06-01T03:04:57.064Z,20.14
2018-06-01T03:05:57.090Z,20.22
2018-06-01T03:06:57.100Z,20.07
2018-06-01T03:07:57.100Z,20.06
2018-06-01T03:08:57.135Z,20.19
2018-06-01T03:09:57.154Z,20.28
2018-06-01T03:10:57.184Z,20.72
2018-06-01T03:11:57.232Z,20.96
2018-06-01T03:12:57.217Z,21.12
2018-06-01T03:13:57.237Z,21.15
2018-06-01T03:14:57.258Z,21.36
2018-06-01T03:15:57.286Z,21.17
2018-06-01T03:16:57.314Z,20.82
2018-06-01T03:17:57.338Z,20.70
2018-06-01T03:18:57.346Z,20.62
2018-06-01T03:19:57.367Z,20.39
2018-06-01T03:20:57.389Z,20.52
2018-06-01T03:21:57.427Z,20.60
2018-06-01T03:22:57.432Z,20.58
2018-06-01T03:23:57.458Z,20.59
2018-06-01T03:24:57.478Z,20.81
2018-06-01T03:25:57.501Z,20.88
2018-06-01T03:26:57.553Z,20.96
2018-06-01T03:27:57.562Z,21.05
2018-06-01T03:28:57.565Z,21.40
2018-06-01T03:29:57.609Z,21.48
2018-06-01T03:30:57.617Z,21.22
2018-06-01T03:31:57.633Z,21.37
2018-06-01T03:32:57.676Z,21.24
2018-06-01T03:33:57.678Z,20.93
2018-06-01T03:34:57.698Z,20.80
2018-06-01T03:35:57.745Z,20.66
2018-06-01T03:36:57.774Z,20.67
2018-06-01T03:37:57.762Z,20.56
2018-06-01T03:38:57.800Z,20.66
2018-06-01T03:39:57.809Z,20.81
2018-06-01T03:40:57.843Z,20.72
2018-06-01T03:41:57.846Z,20.74
2018-06-01T03:42:57.874Z,20.77
2018-06-01T03:43:57.903Z,20.90
2018-06-01T03:44:57.919Z,20.77
2018-06-01T03:45:57.935Z,20.72
2018-06-01T03:46:57.971Z,20.66
2018-06-01T03:47:57.992Z,20.72
2018-06-01T03:48:58.017Z,20.69
2018-06-01T03:49:58.026Z,20.69
2018-06-01T03:50:58.053Z,20.51
2018-06-01T03:51:58.074Z,20.36
2018-06-01T03:52:58.091Z,20.65
2018-06-01T03:53:58.111Z,20.85
2018-06-01T03:54:58.144Z,20.96
2018-06-01T03:55:58.174Z,20.88
2018-06-01T03:56:58.182Z,20.85
2018-06-01T03:57:58.203Z,20.70
2018-06-01T03:58:58.226Z,20.59
2018-06-01T03:59:58.248Z,20.59
2018-06-01T04:00:58.269Z,20.56
2018-06-01T04:01:58.296Z,20.47
2018-06-01T04:02:58.346Z,20.59
2018-06-01T04:03:58.337Z,20.74
2018-06-01T04:04:58.355Z,20.87
2018-06-01T04:05:58.380Z,20.81
2018-06-01T04:06:58.411Z,20.70
2018-06-01T04:07:58.422Z,20.50
2018-06-01T04:08:58.445Z,20.67
2018-06-01T04:09:58.471Z,20.95
2018-06-01T04:10:58.493Z,21.30
2018-06-01T04:11:58.504Z,21.36
2018-06-01T04:12:58.538Z,21.46
2018-06-01T04:13:58.563Z,21.66
2018-06-01T04:14:58.590Z,21.82
2018-06-01T04:15:58.607Z,21.91
2018-06-01T04:16:58.619Z,21.92
2018-06-01T04:17:58.635Z,22.08
2018-06-01T04:18:58.669Z,22.00
2018-06-01T04:19:58.688Z,22.10
2018-06-01T04:20:58.708Z,22.07
2018-06-01T04:21:58.729Z,22.14
2018-06-01T04:22:58.760Z,22.43
2018-06-01T04:23:58.777Z,22.35
2018-06-01T04:24:58.797Z,22.22
2018-06-01T04:25:58.828Z,22.23
2018-06-01T04:26:58.849Z,21.95
2018-06-01T04:27:58.863Z,22.17
2018-06-01T04:28:58.894Z,22.45
2018-06-01T04:29:58.915Z,22.63
2018-06-01T04:30:58.935Z,22.57
2018-06-01T04:31:58.951Z,22.76
2018-06-01T04:32:58.988Z,22.94
2018-06-01T04:33:59.006Z,22.94
2018-06-01T04:34:59.025Z,23.00
2018-06-01T04:35:59.046Z,22.85
2018-06-01T04:36:59.094Z,22.88
2018-06-01T04:37:59.092Z,22.60
2018-06-01T04:38:59.125Z,22.96
2018-06-01T04:39:59.158Z,23.15
2018-06-01T04:40:59.158Z,23.31
2018-06-01T04:41:59.176Z,23.51
2018-06-01T04:42:59.202Z,23.69
2018-06-01T04:43:59.229Z,23.77
2018-06-01T04:44:59.256Z,23.39
2018-06-01T04:45:59.274Z,22.94
2018-06-01T04:46:59.305Z,22.70
2018-06-01T04:47:59.315Z,22.91
2018-06-01T04:48:59.345Z,22.93
2018-06-01T04:49:59.370Z,23.10
2018-06-01T04:50:59.392Z,22.84
2018-06-01T04:51:59.414Z,23.25
2018-06-01T04:52:59.432Z,23.20
2018-06-01T04:53:59.460Z,23.73
2018-06-01T04:54:59.484Z,24.20
2018-06-01T04:55:59.499Z,24.24
2018-06-01T04:56:59.551Z,24.54
2018-06-01T04:57:59.570Z,24.33
2018-06-01T04:58:59.567Z,23.95
2018-06-01T04:59:59.598Z,23.95
2018-06-01T05:00:59.626Z,24.24
2018-06-01T05:01:59.646Z,24.23
2018-06-01T05:02:59.668Z,24.40
2018-06-01T05:03:59.696Z,24.55
2018-06-01T05:04:59.720Z,24.40
2018-06-01T05:05:59.739Z,24.40
2018-06-01T05:06:59.768Z,24.92
2018-06-01T05:07:59.793Z,25.46
2018-06-01T05:08:59.855Z,25.87
2018-06-01T05:09:59.839Z,26.19
2018-06-01T05:10:59.863Z,25.96
2018-06-01T05:11:59.889Z,25.91
2018-06-01T05:12:59.918Z,27.12
2018-06-01T05:13:59.940Z,27.21
2018-06-01T05:14:59.981Z,26.25
2018-06-01T05:15:59.994Z,25.77
2018-06-01T05:17:00.013Z,25.50
2018-06-01T05:18:00.039Z,25.46
2018-06-01T05:19:00.082Z,25.16
2018-06-01T05:20:00.119Z,24.76
2018-06-01T05:21:00.115Z,25.25
2018-06-01T05:22:00.140Z,24.63
2018-06-01T05:23:00.170Z,24.23
2018-06-01T05:24:00.216Z,24.48
2018-06-01T05:25:00.216Z,24.81
2018-06-01T05:26:00.259Z,24.38
2018-06-01T05:27:00.278Z,24.38
2018-06-01T05:28:00.308Z,24.11
2018-06-01T05:29:00.323Z,23.84
2018-06-01T05:30:00.351Z,23.87
2018-06-01T05:31:00.369Z,24.18
2018-06-01T05:32:00.403Z,24.14
2018-06-01T05:33:00.417Z,24.60
2018-06-01T05:34:00.444Z,25.23
2018-06-01T05:35:00.474Z,24.78
2018-06-01T05:36:00.494Z,24.30
2018-06-01T05:37:00.523Z,24.65
2018-06-01T05:38:00.545Z,25.25
2018-06-01T05:39:00.566Z,25.69
2018-06-01T05:40:00.597Z,25.88
2018-06-01T05:41:00.628Z,25.75
2018-06-01T05:42:00.639Z,25.07
2018-06-01T05:43:00.668Z,24.69
2018-06-01T05:44:00.702Z,24.86
2018-06-01T05:45:00.718Z,24.86
2018-06-01T05:46:00.751Z,25.06
2018-06-01T05:47:00.768Z,25.18
2018-06-01T05:48:00.788Z,25.46
2018-06-01T05:49:00.826Z,26.21
2018-06-01T05:50:00.860Z,26.68
2018-06-01T05:51:00.867Z,26.95
2018-06-01T05:52:00.879Z,27.35
2018-06-01T05:53:00.912Z,27.70
2018-06-01T05:54:00.934Z,27.75
2018-06-01T05:55:00.998Z,27.67
2018-06-01T05:56:00.982Z,28.12
2018-06-01T05:57:01.011Z,28.74
2018-06-01T05:58:01.031Z,28.41
2018-06-01T05:59:01.065Z,27.25
2018-06-01T06:00:01.089Z,27.40
2018-06-01T06:01:01.128Z,27.12
2018-06-01T06:02:01.136Z,25.95
2018-06-01T06:03:01.161Z,26.31
2018-06-01T06:04:01.188Z,26.58
2018-06-01T06:05:01.218Z,27.00
2018-06-01T06:06:01.243Z,27.68
2018-06-01T06:07:01.280Z,28.05
2018-06-01T06:08:01.300Z,28.60
2018-06-01T06:09:01.317Z,28.19
2018-06-01T06:10:01.348Z,28.27
2018-06-01T06:11:01.377Z,28.75
2018-06-01T06:12:01.408Z,28.42
2018-06-01T06:13:01.422Z,28.17
2018-06-01T06:14:01.447Z,28.39
2018-06-01T06:15:01.476Z,28.38
2018-06-01T06:16:01.507Z,28.96
2018-06-01T06:17:01.527Z,29.49
2018-06-01T06:18:01.566Z,29.29
2018-06-01T06:19:01.585Z,29.36
2018-06-01T06:20:01.625Z,29.29
2018-06-01T06:21:01.633Z,29.19
2018-06-01T06:22:01.657Z,28.89
2018-06-01T06:23:01.688Z,28.10
2018-06-01T06:24:01.718Z,28.35
2018-06-01T06:25:01.733Z,28.62
2018-06-01T06:26:01.783Z,28.64
2018-06-01T06:27:01.794Z,27.70
2018-06-01T06:28:01.809Z,27.26
2018-06-01T06:29:01.834Z,27.71
2018-06-01T06:30:01.864Z,27.70
2018-06-01T06:31:01.894Z,27.70
2018-06-01T06:32:01.911Z,27.39
2018-06-01T06:33:01.951Z,27.54
2018-06-01T06:34:01.977Z,27.98
2018-06-01T06:35:01.991Z,28.23
2018-06-01T06:36:02.009Z,27.90
2018-06-01T06:37:02.041Z,27.49
2018-06-01T06:38:02.066Z,27.25
2018-06-01T06:39:02.100Z,26.71
2018-06-01T06:40:02.126Z,26.19
2018-06-01T06:41:02.146Z,25.95
2018-06-01T06:42:02.163Z,25.62
2018-06-01T06:43:02.205Z,25.83
2018-06-01T06:44:02.223Z,25.81
2018-06-01T06:45:02.239Z,26.40
2018-06-01T06:46:02.264Z,26.18
2018-06-01T06:47:02.287Z,26.77
2018-06-01T06:48:02.315Z,27.60
2018-06-01T06:49:02.349Z,28.07
2018-06-01T06:50:02.378Z,28.30
2018-06-01T06:51:02.399Z,28.56
2018-06-01T06:52:02.415Z,28.79
2018-06-01T06:53:02.455Z,27.95
2018-06-01T06:54:02.471Z,28.01
2018-06-01T06:55:02.492Z,27.63
2018-06-01T06:56:02.520Z,27.42
2018-06-01T06:57:02.538Z,27.65
2018-06-01T06:58:02.574Z,27.37
2018-06-01T06:59:02.618Z,27.44
2018-06-01T07:00:02.626Z,27.85
2018-06-01T07:01:02.641Z,28.11
2018-06-01T07:02:02.673Z,28.37
2018-06-01T07:03:02.695Z,28.69
2018-06-01T07:04:02.719Z,28.78
2018-06-01T07:05:02.750Z,28.41
2018-06-01T07:06:02.768Z,28.10
2018-06-01T07:07:02.802Z,28.15
2018-06-01T07:08:02.821Z,28.62
2018-06-01T07:09:02.861Z,28.25
2018-06-01T07:10:02.888Z,28.22
2018-06-01T07:11:02.895Z,28.12
2018-06-01T07:12:02.924Z,28.22
2018-06-01T07:13:02.962Z,28.45
2018-06-01T07:14:02.968Z,29.01
2018-06-01T07:15:03.007Z,28.76
2018-06-01T07:16:03.042Z,29.13
2018-06-01T07:17:03.057Z,29.61
2018-06-01T07:18:03.076Z,29.56
2018-06-01T07:19:03.097Z,29.66
2018-06-01T07:20:03.123Z,29.53
2018-06-01T07:21:03.159Z,29.42
2018-06-01T07:22:03.173Z,29.65
2018-06-01T07:23:03.215Z,29.84
2018-06-01T07:24:03.247Z,29.38
2018-06-01T07:25:03.272Z,29.56
2018-06-01T07:26:03.292Z,29.94
2018-06-01T07:27:03.317Z,29.69
2018-06-01T07:28:03.350Z,30.06
2018-06-01T07:29:03.357Z,29.84
2018-06-01T07:30:03.383Z,30.02
2018-06-01T07:31:03.413Z,30.21
2018-06-01T07:32:03.450Z,29.47
2018-06-01T07:33:03.465Z,29.60
2018-06-01T07:34:03.492Z,29.73
2018-06-01T07:35:03.532Z,29.86
2018-06-01T07:36:03.542Z,29.76
2018-06-01T07:37:03.593Z,29.53
2018-06-01T07:38:03.593Z,29.19
2018-06-01T07:39:03.625Z,29.38
2018-06-01T07:40:03.637Z,29.14
2018-06-01T07:41:03.674Z,29.42
2018-06-01T07:42:03.691Z,29.32
2018-06-01T07:43:03.730Z,28.81
2018-06-01T07:44:03.747Z,28.82
2018-06-01T07:45:03.779Z,28.59
2018-06-01T07:46:03.800Z,28.08
2018-06-01T07:47:03.829Z,27.59
2018-06-01T07:48:03.849Z,27.63
2018-06-01T07:49:03.872Z,27.52
2018-06-01T07:50:03.905Z,27.45
2018-06-01T07:51:03.927Z,27.89
2018-06-01T07:52:03.976Z,27.22
2018-06-01T07:53:03.979Z,27.42
2018-06-01T07:54:04.018Z,27.83
2018-06-01T07:55:04.033Z,27.55
2018-06-01T07:56:04.065Z,27.25
2018-06-01T07:57:04.078Z,27.11
2018-06-01T07:58:04.118Z,27.47
2018-06-01T07:59:04.130Z,28.30
2018-06-01T08:00:04.156Z,29.50
2018-06-01T08:01:04.188Z,30.23
2018-06-01T08:02:04.227Z,29.94
2018-06-01T08:03:04.231Z,29.75
2018-06-01T08:04:04.260Z,31.14
2018-06-01T08:05:04.288Z,31.80
2018-06-01T08:06:04.316Z,32.04
2018-06-01T08:07:04.341Z,32.53
2018-06-01T08:08:04.364Z,32.53
2018-06-01T08:09:04.424Z,32.22
2018-06-01T08:10:04.423Z,31.58
2018-06-01T08:11:04.442Z,32.00
2018-06-01T08:12:04.471Z,32.12
2018-06-01T08:13:04.514Z,33.01
2018-06-01T08:14:04.529Z,33.20
2018-06-01T08:15:04.556Z,33.47
2018-06-01T08:16:04.589Z,32.97
2018-06-01T08:17:04.607Z,32.89
2018-06-01T08:18:04.632Z,32.85
2018-06-01T08:19:04.664Z,33.00
2018-06-01T08:20:04.694Z,33.12
2018-06-01T08:21:04.717Z,33.36
2018-06-01T08:22:04.751Z,33.57
2018-06-01T08:23:04.777Z,32.92
2018-06-01T08:24:04.802Z,32.80
2018-06-01T08:25:04.827Z,32.67
2018-06-01T08:26:04.858Z,32.70
2018-06-01T08:27:04.936Z,32.19
2018-06-01T08:28:04.909Z,31.85
2018-06-01T08:29:04.950Z,32.12
2018-06-01T08:30:04.967Z,31.69
2018-06-01T08:31:04.990Z,31.43
2018-06-01T08:32:05.025Z,30.99
2018-06-01T08:33:05.047Z,30.83
2018-06-01T08:34:05.083Z,30.97
2018-06-01T08:35:05.097Z,30.48
2018-06-01T08:36:05.130Z,30.08
2018-06-01T08:37:05.153Z,29.93
2018-06-01T08:38:05.189Z,30.00
2018-06-01T08:39:05.224Z,30.05
2018-06-01T08:40:05.230Z,29.49
2018-06-01T08:41:05.262Z,29.13
2018-06-01T08:42:05.309Z,28.76
2018-06-01T08:43:05.313Z,28.96
2018-06-01T08:44:05.360Z,29.04
2018-06-01T08:45:05.362Z,29.24
2018-06-01T08:46:05.390Z,29.22
2018-06-01T08:47:05.430Z,29.26
2018-06-01T08:48:05.452Z,29.24
2018-06-01T08:49:05.481Z,29.05
2018-06-01T08:50:05.492Z,28.82
2018-06-01T08:51:05.520Z,28.64
2018-06-01T08:52:05.556Z,28.54
2018-06-01T08:53:05.579Z,28.69
2018-06-01T08:54:05.617Z,28.78
2018-06-01T08:55:05.623Z,28.75
2018-06-01T08:56:05.642Z,28.54
2018-06-01T08:57:05.714Z,28.54
2018-06-01T08:58:05.702Z,28.76
2018-06-01T08:59:05.773Z,29.01
2018-06-01T09:00:05.759Z,29.05
2018-06-01T09:01:05.778Z,28.85
2018-06-01T09:02:05.802Z,29.42
2018-06-01T09:03:05.845Z,28.82
2018-06-01T09:04:05.863Z,28.78
2018-06-01T09:05:05.876Z,28.98
2018-06-01T09:06:05.902Z,28.79
2018-06-01T09:07:05.935Z,28.86
2018-06-01T09:08:05.953Z,28.89
2018-06-01T09:09:05.977Z,28.51
2018-06-01T09:10:06.083Z,28.27
2018-06-01T09:11:06.041Z,28.33
2018-06-01T09:12:06.059Z,27.70
2018-06-01T09:13:06.107Z,27.47
2018-06-01T09:14:06.111Z,27.33
2018-06-01T09:15:06.140Z,27.51
2018-06-01T09:16:06.153Z,27.48
2018-06-01T09:17:06.179Z,27.52
2018-06-01T09:18:06.214Z,27.65
2018-06-01T09:19:06.231Z,27.90
2018-06-01T09:20:06.258Z,27.68
2018-06-01T09:21:06.306Z,27.70
2018-06-01T09:22:06.344Z,27.71
2018-06-01T09:23:06.349Z,27.96
2018-06-01T09:24:06.357Z,27.54
2018-06-01T09:25:06.411Z,27.80
2018-06-01T09:26:06.414Z,27.77
2018-06-01T09:27:06.436Z,28.23
2018-06-01T09:28:06.502Z,28.23
2018-06-01T09:29:06.485Z,28.10
2018-06-01T09:30:06.510Z,27.75
2018-06-01T09:31:06.548Z,27.86
2018-06-01T09:32:06.566Z,27.80
2018-06-01T09:33:06.595Z,27.67
2018-06-01T09:34:06.614Z,27.89
2018-06-01T09:35:06.630Z,28.15
2018-06-01T09:36:06.680Z,28.20
2018-06-01T09:37:06.682Z,28.12
2018-06-01T09:38:06.715Z,28.27
2018-06-01T09:39:06.739Z,28.41
2018-06-01T09:40:06.757Z,28.70
2018-06-01T09:41:06.790Z,28.98
2018-06-01T09:42:06.817Z,28.78
2018-06-01T09:43:06.840Z,28.76
2018-06-01T09:44:06.869Z,28.74
2018-06-01T09:45:06.885Z,28.89
2018-06-01T09:46:06.926Z,28.52
2018-06-01T09:47:06.950Z,28.51
2018-06-01T09:48:06.966Z,28.44
2018-06-01T09:49:06.988Z,28.49
2018-06-01T09:50:07.022Z,28.47
2018-06-01T09:51:07.039Z,28.64
2018-06-01T09:52:07.065Z,28.94
2018-06-01T09:53:07.090Z,29.38
2018-06-01T09:54:07.147Z,29.47
2018-06-01T09:55:07.145Z,29.38
2018-06-01T09:56:07.179Z,29.35
2018-06-01T09:57:07.204Z,29.54
2018-06-01T09:58:07.217Z,29.38
2018-06-01T09:59:07.261Z,29.12
2018-06-01T10:00:07.301Z,29.12
2018-06-01T10:01:07.303Z,29.51
2018-06-01T10:02:07.334Z,29.75
2018-06-01T10:03:07.363Z,29.98
2018-06-01T10:04:07.378Z,29.82
2018-06-01T10:05:07.404Z,29.53
2018-06-01T10:06:07.437Z,29.10
2018-06-01T10:07:07.460Z,28.96
2018-06-01T10:08:07.474Z,28.81
2018-06-01T10:09:07.508Z,29.10
2018-06-01T10:10:07.536Z,29.16
2018-06-01T10:11:07.557Z,29.05
2018-06-01T10:12:07.579Z,29.32
2018-06-01T10:13:07.613Z,29.26
2018-06-01T10:14:07.633Z,29.26
2018-06-01T10:15:07.659Z,29.42
2018-06-01T10:16:07.693Z,29.57
2018-06-01T10:17:07.712Z,29.54
2018-06-01T10:18:07.741Z,29.49
2018-06-01T10:19:07.763Z,29.29
2018-06-01T10:20:07.789Z,29.26
2018-06-01T10:21:07.811Z,29.36
2018-06-01T10:22:07.852Z,29.71
2018-06-01T10:23:07.878Z,29.81
2018-06-01T10:24:07.943Z,30.00
2018-06-01T10:25:07.940Z,29.66
2018-06-01T10:26:07.952Z,29.81
2018-06-01T10:27:07.963Z,29.26
2018-06-01T10:28:07.989Z,29.20
2018-06-01T10:29:08.019Z,28.93
2018-06-01T10:30:08.040Z,29.23
2018-06-01T10:31:08.079Z,28.29
2018-06-01T10:32:08.107Z,27.90
2018-06-01T10:33:08.123Z,27.65
2018-06-01T10:34:08.145Z,27.20
2018-06-01T10:35:08.186Z,27.35
2018-06-01T10:36:08.195Z,27.89
2018-06-01T10:37:08.226Z,27.45
2018-06-01T10:38:08.247Z,27.54
2018-06-01T10:39:08.278Z,27.44
2018-06-01T10:40:08.294Z,27.78
2018-06-01T10:41:08.319Z,27.82
2018-06-01T10:42:08.355Z,28.19
2018-06-01T10:43:08.379Z,28.44
2018-06-01T10:44:08.400Z,28.38
2018-06-01T10:45:08.425Z,28.11
2018-06-01T10:46:08.455Z,28.29
2018-06-01T10:47:08.476Z,28.23
2018-06-01T10:48:08.499Z,28.08
2018-06-01T10:49:08.525Z,28.47
2018-06-01T10:50:08.548Z,27.90
2018-06-01T10:51:08.590Z,27.36
2018-06-01T10:52:08.604Z,27.37
2018-06-01T10:53:08.623Z,27.12
2018-06-01T10:54:08.654Z,27.44
2018-06-01T10:55:08.731Z,27.25
2018-06-01T10:56:08.698Z,27.18
2018-06-01T10:57:08.723Z,27.08
2018-06-01T10:58:08.753Z,26.97
2018-06-01T10:59:08.786Z,26.88
2018-06-01T11:00:08.802Z,26.51
2018-06-01T11:01:08.831Z,26.37
2018-06-01T11:02:08.858Z,26.41
2018-06-01T11:03:08.891Z,26.62
2018-06-01T11:04:08.906Z,26.81
2018-06-01T11:05:08.943Z,26.71
2018-06-01T11:06:08.950Z,26.74
2018-06-01T11:07:08.982Z,26.70
2018-06-01T11:08:08.998Z,26.93
2018-06-01T11:09:09.024Z,26.80
2018-06-01T11:10:09.044Z,26.38
2018-06-01T11:11:09.089Z,25.95
2018-06-01T11:12:09.103Z,26.29
2018-06-01T11:13:09.121Z,26.31
2018-06-01T11:14:09.148Z,26.37
2018-06-01T11:15:09.183Z,26.36
2018-06-01T11:16:09.195Z,27.05
2018-06-01T11:17:09.219Z,27.26
2018-06-01T11:18:09.269Z,27.00
2018-06-01T11:19:09.275Z,27.10
2018-06-01T11:20:09.308Z,27.11
2018-06-01T11:21:09.319Z,27.07
2018-06-01T11:22:09.341Z,26.93
2018-06-01T11:23:09.364Z,27.10
2018-06-01T11:24:09.387Z,27.25
2018-06-01T11:25:09.427Z,27.71
2018-06-01T11:26:09.435Z,27.37
2018-06-01T11:27:09.469Z,27.11
2018-06-01T11:28:09.508Z,26.95
2018-06-01T11:29:09.539Z,26.85
2018-06-01T11:30:09.538Z,27.07
2018-06-01T11:31:09.567Z,27.05
2018-06-01T11:32:09.590Z,26.92
2018-06-01T11:33:09.613Z,27.12
2018-06-01T11:34:09.643Z,27.25
2018-06-01T11:35:09.663Z,26.93
2018-06-01T11:36:09.692Z,27.15
2018-06-01T11:37:09.713Z,27.49
2018-06-01T11:38:09.758Z,27.36
2018-06-01T11:39:09.799Z,27.40
2018-06-01T11:40:09.795Z,27.42
2018-06-01T11:41:09.804Z,26.96
2018-06-01T11:42:09.833Z,27.26
2018-06-01T11:43:09.860Z,27.36
2018-06-01T11:44:09.879Z,27.35
2018-06-01T11:45:09.922Z,27.18
2018-06-01T11:46:09.948Z,27.30
2018-06-01T11:47:09.967Z,27.70
2018-06-01T11:48:09.992Z,27.71
2018-06-01T11:49:10.005Z,27.12
2018-06-01T11:50:10.034Z,27.18
2018-06-01T11:51:10.053Z,27.25
2018-06-01T11:52:10.092Z,26.93
2018-06-01T11:53:10.119Z,27.03
2018-06-01T11:54:10.134Z,26.96
2018-06-01T11:55:10.154Z,26.89
2018-06-01T11:56:10.174Z,26.83
2018-06-01T11:57:10.202Z,26.66
2018-06-01T11:58:10.234Z,26.55
2018-06-01T11:59:10.262Z,26.43
2018-06-01T12:00:10.276Z,26.37
2018-06-01T12:01:10.302Z,26.40
2018-06-01T12:02:10.318Z,26.26
2018-06-01T12:03:10.369Z,26.16
2018-06-01T12:04:10.375Z,26.06
2018-06-01T12:05:10.417Z,26.25
2018-06-01T12:06:10.423Z,26.48
2018-06-01T12:07:10.452Z,26.68
2018-06-01T12:08:10.465Z,26.53
2018-06-01T12:09:10.499Z,26.68
2018-06-01T12:10:10.518Z,26.81
2018-06-01T12:11:10.549Z,26.51
2018-06-01T12:12:10.566Z,26.37
2018-06-01T12:13:10.590Z,26.13
2018-06-01T12:14:10.615Z,25.84
2018-06-01T12:15:10.647Z,25.96
2018-06-01T12:16:10.673Z,26.38
2018-06-01T12:17:10.684Z,26.58
2018-06-01T12:18:10.713Z,26.70
2018-06-01T12:19:10.741Z,26.71
2018-06-01T12:20:10.751Z,26.96
2018-06-01T12:21:10.779Z,27.25
2018-06-01T12:22:10.804Z,27.45
2018-06-01T12:23:10.840Z,27.55
2018-06-01T12:24:10.871Z,27.63
2018-06-01T12:25:10.893Z,27.07
2018-06-01T12:26:10.910Z,27.07
2018-06-01T12:27:10.961Z,27.12
2018-06-01T12:28:10.960Z,26.93
2018-06-01T12:29:10.988Z,26.77
2018-06-01T12:30:11.022Z,26.65
2018-06-01T12:31:11.023Z,26.75
2018-06-01T12:32:11.064Z,26.90
2018-06-01T12:33:11.070Z,26.81
2018-06-01T12:34:11.101Z,27.11
2018-06-01T12:35:11.129Z,27.18
2018-06-01T12:36:11.163Z,27.10
2018-06-01T12:37:11.166Z,27.02
2018-06-01T12:38:11.208Z,27.25
2018-06-01T12:39:11.236Z,27.45
2018-06-01T12:40:11.246Z,27.37
2018-06-01T12:41:11.276Z,27.26
2018-06-01T12:42:11.288Z,27.25
2018-06-01T12:43:11.317Z,27.44
2018-06-01T12:44:11.347Z,27.26
2018-06-01T12:45:11.367Z,27.00
2018-06-01T12:46:11.399Z,27.21
2018-06-01T12:47:11.427Z,27.45
2018-06-01T12:48:11.445Z,27.15
2018-06-01T12:49:11.470Z,27.25
2018-06-01T12:50:11.488Z,27.71
2018-06-01T12:51:11.534Z,27.58
2018-06-01T12:52:11.561Z,28.45
2018-06-01T12:53:11.572Z,28.72